Alva, Oklahoma
Current Conditions -  °F | °C
As of 12:55 PM on Monday 20 Oct 2014 (Local Time) from KAVK Reporting Station
Clear Clear  
Wind Chill: 72°   Ceiling: Unl
Heat Index: 72°   Visibility: 10mi
Dew Point: 59°   Wind: 10mph
Humidity: 64%   Direction: 50°NE
Pressure: 30.08"   Gusts: 16mph
Location:  36.8°N, 98.67°W
Report Text: KAVK 201755Z AUTO 05009G14KT 040V100 10SM CLR 22/15 A3008 RMK AO2
Loading
Personal Weather Stations






























Interactive Weather Map
Tropical Storm Tracking
New forecast layout! Learn more

10-Day Weather Forecast

Advertisements
Track Severe Weather on mobile